sensor_id;sensor_type;location;lat;lon;timestamp;pressure;altitude;pressure_sealevel;temperature;humidity
7052;BME280;3567;52.444;13.556;2022-12-08T00:01:45;100506.06;;;0.05;100.00
7052;BME280;3567;52.444;13.556;2022-12-08T00:04:10;100502.47;;;0.06;100.00
7052;BME280;3567;52.444;13.556;2022-12-08T00:06:41;100500.47;;;0.08;100.00
7052;BME280;3567;52.444;13.556;2022-12-08T00:12:04;100491.56;;;0.09;100.00
7052;BME280;3567;52.444;13.556;2022-12-08T00:14:48;100494.22;;;0.09;100.00
7052;BME280;3567;52.444;13.556;2022-12-08T00:17:15;100495.84;;;0.10;100.00
7052;BME280;3567;52.444;13.556;2022-12-08T00:19:41;100493.88;;;0.12;100.00
7052;BME280;3567;52.444;13.556;2022-12-08T00:22:09;100502.59;;;0.12;100.00
7052;BME280;3567;52.444;13.556;2022-12-08T00:24:36;100499.81;;;0.14;100.00
7052;BME280;3567;52.444;13.556;2022-12-08T00:27:06;100505.56;;;0.17;100.00
7052;BME280;3567;52.444;13.556;2022-12-08T00:29:32;100503.41;;;0.21;100.00
7052;BME280;3567;52.444;13.556;2022-12-08T00:31:57;100500.44;;;0.24;100.00
7052;BME280;3567;52.444;13.556;2022-12-08T00:34:22;100497.50;;;0.27;100.00
7052;BME280;3567;52.444;13.556;2022-12-08T00:36:48;100494.50;;;0.30;100.00
7052;BME280;3567;52.444;13.556;2022-12-08T00:39:14;100495.00;;;0.34;100.00
7052;BME280;3567;52.444;13.556;2022-12-08T00:41:40;100494.00;;;0.35;100.00
7052;BME280;3567;52.444;13.556;2022-12-08T00:44:24;100491.38;;;0.35;100.00
7052;BME280;3567;52.444;13.556;2022-12-08T00:46:49;100481.81;;;0.34;100.00
7052;BME280;3567;52.444;13.556;2022-12-08T00:49:15;100480.00;;;0.34;100.00
7052;BME280;3567;52.444;13.556;2022-12-08T00:51:41;100472.09;;;0.34;100.00
7052;BME280;3567;52.444;13.556;2022-12-08T00:54:08;100481.66;;;0.35;100.00
7052;BME280;3567;52.444;13.556;2022-12-08T00:56:33;100478.84;;;0.37;100.00
7052;BME280;3567;52.444;13.556;2022-12-08T00:58:59;100481.47;;;0.37;100.00
7052;BME280;3567;52.444;13.556;2022-12-08T01:01:25;100472.75;;;0.36;100.00
7052;BME280;3567;52.444;13.556;2022-12-08T01:03:51;100464.69;;;0.38;100.00
7052;BME280;3567;52.444;13.556;2022-12-08T01:06:16;100477.03;;;0.37;100.00
7052;BME280;3567;52.444;13.556;2022-12-08T01:08:42;100466.47;;;0.37;100.00
7052;BME280;3567;52.444;13.556;2022-12-08T01:11:11;100463.84;;;0.37;100.00
7052;BME280;3567;52.444;13.556;2022-12-08T01:13:37;100463.03;;;0.37;100.00
7052;BME280;3567;52.444;13.556;2022-12-08T01:16:02;100474.38;;;0.37;100.00
7052;BME280;3567;52.444;13.556;2022-12-08T01:18:28;100471.75;;;0.37;100.00
7052;BME280;3567;52.444;13.556;2022-12-08T01:20:54;100469.97;;;0.38;100.00
7052;BME280;3567;52.444;13.556;2022-12-08T01:23:19;100475.25;;;0.38;100.00
7052;BME280;3567;52.444;13.556;2022-12-08T01:25:44;100468.16;;;0.38;100.00
7052;BME280;3567;52.444;13.556;2022-12-08T01:28:10;100471.59;;;0.39;100.00
7052;BME280;3567;52.444;13.556;2022-12-08T01:30:38;100471.44;;;0.40;100.00
7052;BME280;3567;52.444;13.556;2022-12-08T01:33:04;100469.78;;;0.39;100.00
7052;BME280;3567;52.444;13.556;2022-12-08T01:35:29;100471.44;;;0.40;100.00
7052;BME280;3567;52.444;13.556;2022-12-08T01:37:55;100467.81;;;0.41;100.00
7052;BME280;3567;52.444;13.556;2022-12-08T01:40:20;100461.88;;;0.39;100.00
7052;BME280;3567;52.444;13.556;2022-12-08T01:42:45;100448.72;;;0.39;100.00
7052;BME280;3567;52.444;13.556;2022-12-08T01:45:27;100462.53;;;0.41;100.00
7052;BME280;3567;52.444;13.556;2022-12-08T01:47:57;100456.44;;;0.41;100.00
7052;BME280;3567;52.444;13.556;2022-12-08T01:50:25;100449.34;;;0.41;100.00
7052;BME280;3567;52.444;13.556;2022-12-08T01:52:52;100448.53;;;0.41;100.00
7052;BME280;3567;52.444;13.556;2022-12-08T01:58:01;100440.63;;;0.41;100.00
7052;BME280;3567;52.444;13.556;2022-12-08T02:00:27;100433.72;;;0.40;100.00
7052;BME280;3567;52.444;13.556;2022-12-08T02:03:13;100430.91;;;0.41;100.00
7052;BME280;3567;52.444;13.556;2022-12-08T02:05:40;100437.19;;;0.40;100.00
7052;BME280;3567;52.444;13.556;2022-12-08T02:08:08;100431.91;;;0.40;100.00
7052;BME280;3567;52.444;13.556;2022-12-08T02:22:01;100413.16;;;0.35;100.00
7052;BME280;3567;52.444;13.556;2022-12-08T02:24:38;100406.41;;;0.33;100.00
7052;BME280;3567;52.444;13.556;2022-12-08T02:27:37;100405.59;;;0.32;100.00
7052;BME280;3567;52.444;13.556;2022-12-08T02:30:24;100404.94;;;0.30;100.00
7052;BME280;3567;52.444;13.556;2022-12-08T02:37:58;100403.63;;;0.26;100.00
7052;BME280;3567;52.444;13.556;2022-12-08T02:46:07;100389.00;;;0.23;100.00
7052;BME280;3567;52.444;13.556;2022-12-08T02:48:34;100395.91;;;0.24;100.00
7052;BME280;3567;52.444;13.556;2022-12-08T02:51:00;100393.09;;;0.26;100.00
7052;BME280;3567;52.444;13.556;2022-12-08T02:53:27;100388.63;;;0.26;100.00
7052;BME280;3567;52.444;13.556;2022-12-08T02:58:53;100377.13;;;0.28;100.00
7052;BME280;3567;52.444;13.556;2022-12-08T03:07:19;100363.78;;;0.29;100.00
7052;BME280;3567;52.444;13.556;2022-12-08T03:12:21;100362.78;;;0.30;100.00
7052;BME280;3567;52.444;13.556;2022-12-08T03:14:52;100357.34;;;0.32;100.00
7052;BME280;3567;52.444;13.556;2022-12-08T03:17:20;100345.00;;;0.32;100.00
7052;BME280;3567;52.444;13.556;2022-12-08T03:19:48;100348.28;;;0.34;100.00
7052;BME280;3567;52.444;13.556;2022-12-08T03:22:16;100343.00;;;0.34;100.00
7052;BME280;3567;52.444;13.556;2022-12-08T03:24:44;100342.00;;;0.35;100.00
7052;BME280;3567;52.444;13.556;2022-12-08T03:27:15;100342.66;;;0.37;100.00
7052;BME280;3567;52.444;13.556;2022-12-08T03:29:45;100339.38;;;0.35;100.00
7052;BME280;3567;52.444;13.556;2022-12-08T03:32:18;100343.84;;;0.35;100.00
7052;BME280;3567;52.444;13.556;2022-12-08T03:34:47;100332.47;;;0.34;100.00
7052;BME280;3567;52.444;13.556;2022-12-08T03:37:13;100329.84;;;0.34;100.00
7052;BME280;3567;52.444;13.556;2022-12-08T03:39:39;100338.56;;;0.35;100.00
7052;BME280;3567;52.444;13.556;2022-12-08T03:42:04;100328.03;;;0.35;100.00
7052;BME280;3567;52.444;13.556;2022-12-08T03:44:29;100325.38;;;0.35;100.00
7052;BME280;3567;52.444;13.556;2022-12-08T03:46:55;100320.13;;;0.35;100.00
7052;BME280;3567;52.444;13.556;2022-12-08T03:49:20;100312.41;;;0.33;100.00
7052;BME280;3567;52.444;13.556;2022-12-08T03:51:45;100307.13;;;0.33;100.00
7052;BME280;3567;52.444;13.556;2022-12-08T03:54:11;100298.41;;;0.33;100.00
7052;BME280;3567;52.444;13.556;2022-12-08T03:56:37;100306.94;;;0.35;100.00
7052;BME280;3567;52.444;13.556;2022-12-08T03:59:03;100300.69;;;0.36;100.00
7052;BME280;3567;52.444;13.556;2022-12-08T04:01:29;100304.94;;;0.37;100.00
7052;BME280;3567;52.444;13.556;2022-12-08T04:03:54;100289.97;;;0.37;100.00
7052;BME280;3567;52.444;13.556;2022-12-08T04:06:21;100297.72;;;0.39;100.00
7052;BME280;3567;52.444;13.556;2022-12-08T04:08:47;100287.81;;;0.41;100.00
7052;BME280;3567;52.444;13.556;2022-12-08T04:11:13;100286.00;;;0.41;100.00
7052;BME280;3567;52.444;13.556;2022-12-08T04:13:39;100283.22;;;0.43;100.00
7052;BME280;3567;52.444;13.556;2022-12-08T04:16:06;100278.75;;;0.43;100.00
7052;BME280;3567;52.444;13.556;2022-12-08T04:18:32;100283.03;;;0.44;100.00
7052;BME280;3567;52.444;13.556;2022-12-08T04:20:57;100282.84;;;0.46;100.00
7052;BME280;3567;52.444;13.556;2022-12-08T04:23:23;100277.38;;;0.47;100.00
7052;BME280;3567;52.444;13.556;2022-12-08T04:25:50;100277.38;;;0.47;100.00
7052;BME280;3567;52.444;13.556;2022-12-08T04:28:16;100283.31;;;0.49;100.00
7052;BME280;3567;52.444;13.556;2022-12-08T04:30:41;100282.50;;;0.49;100.00
7052;BME280;3567;52.444;13.556;2022-12-08T04:33:06;100282.50;;;0.49;100.00
7052;BME280;3567;52.444;13.556;2022-12-08T04:35:32;100280.84;;;0.48;100.00
7052;BME280;3567;52.444;13.556;2022-12-08T04:37:57;100272.94;;;0.48;100.00
7052;BME280;3567;52.444;13.556;2022-12-08T04:40:22;100277.38;;;0.47;100.00
7052;BME280;3567;52.444;13.556;2022-12-08T04:42:48;100281.69;;;0.48;100.00
7052;BME280;3567;52.444;13.556;2022-12-08T04:45:14;100263.88;;;0.50;100.00
7052;BME280;3567;52.444;13.556;2022-12-08T04:47:39;100273.22;;;0.53;100.00
7052;BME280;3567;52.444;13.556;2022-12-08T04:50:06;100270.44;;;0.55;100.00
7052;BME280;3567;52.444;13.556;2022-12-08T04:52:32;100271.25;;;0.55;100.00
7052;BME280;3567;52.444;13.556;2022-12-08T04:54:57;100260.34;;;0.58;100.00
7052;BME280;3567;52.444;13.556;2022-12-08T04:57:23;100266.09;;;0.62;100.00
7052;BME280;3567;52.444;13.556;2022-12-08T04:59:48;100260.66;;;0.63;100.00
7052;BME280;3567;52.444;13.556;2022-12-08T05:02:13;100259.50;;;0.66;100.00
7052;BME280;3567;52.444;13.556;2022-12-08T05:04:39;100255.66;;;0.68;100.00
7052;BME280;3567;52.444;13.556;2022-12-08T05:07:04;100253.69;;;0.70;100.00
7052;BME280;3567;52.444;13.556;2022-12-08T05:09:29;100250.88;;;0.72;100.00
7052;BME280;3567;52.444;13.556;2022-12-08T05:11:55;100247.25;;;0.73;100.00
7052;BME280;3567;52.444;13.556;2022-12-08T05:14:20;100252.50;;;0.73;100.00
7052;BME280;3567;52.444;13.556;2022-12-08T05:16:46;100249.69;;;0.74;100.00
7052;BME280;3567;52.444;13.556;2022-12-08T05:19:12;100245.25;;;0.75;100.00
7052;BME280;3567;52.444;13.556;2022-12-08T05:21:38;100246.91;;;0.76;100.00
7052;BME280;3567;52.444;13.556;2022-12-08T05:24:04;100252.81;;;0.78;100.00
7052;BME280;3567;52.444;13.556;2022-12-08T05:26:30;100251.81;;;0.79;100.00
7052;BME280;3567;52.444;13.556;2022-12-08T05:28:55;100256.91;;;0.81;100.00
7052;BME280;3567;52.444;13.556;2022-12-08T05:31:20;100259.19;;;0.84;100.00
7052;BME280;3567;52.444;13.556;2022-12-08T05:33:48;100254.56;;;0.86;100.00
7052;BME280;3567;52.444;13.556;2022-12-08T05:36:15;100252.38;;;0.89;100.00
7052;BME280;3567;52.444;13.556;2022-12-08T05:38:41;100257.50;;;0.91;100.00
7052;BME280;3567;52.444;13.556;2022-12-08T05:41:07;100248.59;;;0.92;100.00
7052;BME280;3567;52.444;13.556;2022-12-08T05:43:32;100247.22;;;0.96;100.00
7052;BME280;3567;52.444;13.556;2022-12-08T05:45:58;100256.59;;;0.98;100.00
7052;BME280;3567;52.444;13.556;2022-12-08T05:48:23;100247.69;;;0.99;100.00
7052;BME280;3567;52.444;13.556;2022-12-08T05:50:49;100249.97;;;1.02;100.00
7052;BME280;3567;52.444;13.556;2022-12-08T05:53:16;100252.25;;;1.05;100.00
7052;BME280;3567;52.444;13.556;2022-12-08T05:55:42;100245.81;;;1.08;100.00
7052;BME280;3567;52.444;13.556;2022-12-08T05:58:15;100242.97;;;1.10;100.00
7052;BME280;3567;52.444;13.556;2022-12-08T06:00:41;100242.44;;;1.14;100.00
7052;BME280;3567;52.444;13.556;2022-12-08T06:03:07;100239.47;;;1.17;100.00
7052;BME280;3567;52.444;13.556;2022-12-08T06:05:33;100244.56;;;1.19;100.00
7052;BME280;3567;52.444;13.556;2022-12-08T06:07:59;100232.81;;;1.21;100.00
7052;BME280;3567;52.444;13.556;2022-12-08T06:10:24;100237.06;;;1.22;100.00
7052;BME280;3567;52.444;13.556;2022-12-08T06:12:49;100241.53;;;1.22;100.00
7052;BME280;3567;52.444;13.556;2022-12-08T06:15:15;100237.06;;;1.22;100.00
7052;BME280;3567;52.444;13.556;2022-12-08T06:17:40;100237.06;;;1.22;100.00
7052;BME280;3567;52.444;13.556;2022-12-08T06:20:06;100234.28;;;1.24;100.00
7052;BME280;3567;52.444;13.556;2022-12-08T06:22:31;100238.56;;;1.25;100.00
7052;BME280;3567;52.444;13.556;2022-12-08T06:24:57;100239.38;;;1.25;100.00
7052;BME280;3567;52.444;13.556;2022-12-08T06:27:22;100240.00;;;1.27;100.00
7052;BME280;3567;52.444;13.556;2022-12-08T06:29:48;100239.19;;;1.27;100.00
7052;BME280;3567;52.444;13.556;2022-12-08T06:32:13;100240.19;;;1.26;100.00
7052;BME280;3567;52.444;13.556;2022-12-08T06:34:38;100245.13;;;1.29;100.00
7052;BME280;3567;52.444;13.556;2022-12-08T06:37:04;100250.22;;;1.30;100.00
7052;BME280;3567;52.444;13.556;2022-12-08T06:39:29;100244.94;;;1.30;100.00
7052;BME280;3567;52.444;13.556;2022-12-08T06:41:55;100241.47;;;1.30;100.00
7052;BME280;3567;52.444;13.556;2022-12-08T06:44:39;100248.38;;;1.31;100.00
7052;BME280;3567;52.444;13.556;2022-12-08T06:47:04;100246.94;;;1.28;100.00
7052;BME280;3567;52.444;13.556;2022-12-08T06:49:29;100251.41;;;1.28;100.00
7052;BME280;3567;52.444;13.556;2022-12-08T06:51:55;100250.75;;;1.26;100.00
7052;BME280;3567;52.444;13.556;2022-12-08T06:54:20;100246.47;;;1.25;100.00
7052;BME280;3567;52.444;13.556;2022-12-08T06:56:45;100247.47;;;1.24;100.00
7052;BME280;3567;52.444;13.556;2022-12-08T06:59:11;100251.13;;;1.23;100.00
7052;BME280;3567;52.444;13.556;2022-12-08T07:01:36;100248.28;;;1.24;100.00
7052;BME280;3567;52.444;13.556;2022-12-08T07:04:01;100257.03;;;1.25;100.00
7052;BME280;3567;52.444;13.556;2022-12-08T07:06:27;100256.69;;;1.28;100.00
7052;BME280;3567;52.444;13.556;2022-12-08T07:08:52;100259.13;;;1.29;100.00
7052;BME280;3567;52.444;13.556;2022-12-08T07:11:18;100268.06;;;1.28;100.00
7052;BME280;3567;52.444;13.556;2022-12-08T07:13:43;100265.22;;;1.30;100.00
7052;BME280;3567;52.444;13.556;2022-12-08T07:16:10;100265.22;;;1.30;100.00
7052;BME280;3567;52.444;13.556;2022-12-08T07:18:36;100268.50;;;1.32;100.00
7052;BME280;3567;52.444;13.556;2022-12-08T07:21:07;100267.47;;;1.33;100.00
7052;BME280;3567;52.444;13.556;2022-12-08T07:23:33;100264.84;;;1.33;100.00
7052;BME280;3567;52.444;13.556;2022-12-08T07:26:03;100263.88;;;1.34;100.00
7052;BME280;3567;52.444;13.556;2022-12-08T07:28:30;100265.50;;;1.35;100.00
7052;BME280;3567;52.444;13.556;2022-12-08T07:30:56;100256.59;;;1.36;100.00
7052;BME280;3567;52.444;13.556;2022-12-08T07:33:21;100266.31;;;1.36;100.00
7052;BME280;3567;52.444;13.556;2022-12-08T07:35:59;100267.31;;;1.35;100.00
7052;BME280;3567;52.444;13.556;2022-12-08T07:38:26;100267.94;;;1.37;100.00
7052;BME280;3567;52.444;13.556;2022-12-08T07:40:51;100265.31;;;1.37;100.00
7052;BME280;3567;52.444;13.556;2022-12-08T07:43:17;100272.22;;;1.38;100.00
7052;BME280;3567;52.444;13.556;2022-12-08T07:45:42;100260.84;;;1.37;100.00
7052;BME280;3567;52.444;13.556;2022-12-08T07:48:07;100266.13;;;1.37;100.00
7052;BME280;3567;52.444;13.556;2022-12-08T07:50:33;100261.50;;;1.39;100.00
7052;BME280;3567;52.444;13.556;2022-12-08T07:52:58;100260.50;;;1.40;100.00
7052;BME280;3567;52.444;13.556;2022-12-08T07:55:24;100248.94;;;1.41;100.00
7052;BME280;3567;52.444;13.556;2022-12-08T07:57:49;100251.03;;;1.46;100.00
7052;BME280;3567;52.444;13.556;2022-12-08T08:00:16;100257.59;;;1.50;100.00
7052;BME280;3567;52.444;13.556;2022-12-08T08:02:41;100258.22;;;1.52;100.00
7052;BME280;3567;52.444;13.556;2022-12-08T08:05:07;100255.25;;;1.55;100.00
7052;BME280;3567;52.444;13.556;2022-12-08T08:07:33;100247.13;;;1.56;100.00
7052;BME280;3567;52.444;13.556;2022-12-08T08:09:59;100252.03;;;1.60;100.00
7052;BME280;3567;52.444;13.556;2022-12-08T08:12:25;100251.69;;;1.63;100.00
7052;BME280;3567;52.444;13.556;2022-12-08T08:14:50;100257.59;;;1.65;100.00
7052;BME280;3567;52.444;13.556;2022-12-08T08:17:15;100267.19;;;1.66;100.00
7052;BME280;3567;52.444;13.556;2022-12-08T08:19:41;100268.00;;;1.66;100.00
7052;BME280;3567;52.444;13.556;2022-12-08T08:22:06;100269.00;;;1.65;100.00
7052;BME280;3567;52.444;13.556;2022-12-08T08:24:31;100271.06;;;1.70;100.00
7052;BME280;3567;52.444;13.556;2022-12-08T08:26:57;100273.53;;;1.71;100.00
7052;BME280;3567;52.444;13.556;2022-12-08T08:29:22;100265.25;;;1.74;100.00
7052;BME280;3567;52.444;13.556;2022-12-08T08:31:48;100271.00;;;1.78;100.00
7052;BME280;3567;52.444;13.556;2022-12-08T08:34:13;100272.00;;;1.77;100.00
7052;BME280;3567;52.444;13.556;2022-12-08T08:36:39;100266.53;;;1.78;100.00
7052;BME280;3567;52.444;13.556;2022-12-08T08:39:05;100276.91;;;1.80;100.00
7052;BME280;3567;52.444;13.556;2022-12-08T08:41:30;100273.44;;;1.79;100.00
7052;BME280;3567;52.444;13.556;2022-12-08T08:43:56;100275.88;;;1.81;100.00
7052;BME280;3567;52.444;13.556;2022-12-08T08:46:21;100262.13;;;1.86;100.00
7052;BME280;3567;52.444;13.556;2022-12-08T08:48:46;100260.78;;;1.90;100.00
7052;BME280;3567;52.444;13.556;2022-12-08T08:51:13;100263.22;;;1.91;100.00
7052;BME280;3567;52.444;13.556;2022-12-08T08:53:39;100264.16;;;1.98;100.00
7052;BME280;3567;52.444;13.556;2022-12-08T08:56:12;100270.53;;;2.04;100.00
7052;BME280;3567;52.444;13.556;2022-12-08T08:58:38;100272.97;;;2.05;100.00
7052;BME280;3567;52.444;13.556;2022-12-08T09:01:04;100270.31;;;2.05;100.00
7052;BME280;3567;52.444;13.556;2022-12-08T09:03:29;100270.53;;;2.04;100.00
7052;BME280;3567;52.444;13.556;2022-12-08T09:05:55;100274.34;;;2.01;100.00
7052;BME280;3567;52.444;13.556;2022-12-08T09:08:21;100264.22;;;2.05;100.00
7052;BME280;3567;52.444;13.556;2022-12-08T09:10:46;100261.03;;;2.09;100.00
7052;BME280;3567;52.444;13.556;2022-12-08T09:13:12;100257.66;;;2.16;100.00
7052;BME280;3567;52.444;13.556;2022-12-08T09:15:37;100261.63;;;2.26;100.00
7052;BME280;3567;52.444;13.556;2022-12-08T09:18:03;100253.59;;;2.34;100.00
7052;BME280;3567;52.444;13.556;2022-12-08T09:20:31;100242.84;;;2.36;100.00
7052;BME280;3567;52.444;13.556;2022-12-08T09:22:57;100233.91;;;2.37;100.00
7052;BME280;3567;52.444;13.556;2022-12-08T09:25:22;100242.44;;;2.39;100.00
7052;BME280;3567;52.444;13.556;2022-12-08T09:27:48;100241.06;;;2.43;100.00
7052;BME280;3567;52.444;13.556;2022-12-08T09:32:48;100237.31;;;2.52;100.00
7052;BME280;3567;52.444;13.556;2022-12-08T09:35:13;100232.28;;;2.57;100.00
7052;BME280;3567;52.444;13.556;2022-12-08T09:37:39;100227.88;;;2.65;100.00
7052;BME280;3567;52.444;13.556;2022-12-08T09:40:05;100225.47;;;2.70;100.00
7052;BME280;3567;52.444;13.556;2022-12-08T09:42:37;100232.84;;;2.74;100.00
7052;BME280;3567;52.444;13.556;2022-12-08T09:45:11;100225.72;;;2.75;100.00
7052;BME280;3567;52.444;13.556;2022-12-08T09:47:41;100226.16;;;2.78;100.00
7052;BME280;3567;52.444;13.556;2022-12-08T09:53:18;100224.34;;;2.79;100.00
7052;BME280;3567;52.444;13.556;2022-12-08T09:55:49;100227.00;;;2.79;100.00
7052;BME280;3567;52.444;13.556;2022-12-08T10:01:13;100217.91;;;2.88;100.00
7052;BME280;3567;52.444;13.556;2022-12-08T10:03:39;100222.81;;;2.91;100.00
7052;BME280;3567;52.444;13.556;2022-12-08T10:06:28;100222.25;;;2.96;100.00
7052;BME280;3567;52.444;13.556;2022-12-08T10:09:11;100220.66;;;3.01;100.00
7052;BME280;3567;52.444;13.556;2022-12-08T10:17:03;100214.84;;;3.12;100.00
7052;BME280;3567;52.444;13.556;2022-12-08T10:19:30;100218.50;;;3.11;100.00
7052;BME280;3567;52.444;13.556;2022-12-08T10:21:58;100217.69;;;3.11;100.00
7052;BME280;3567;52.444;13.556;2022-12-08T10:26:54;100208.00;;;3.25;100.00
7052;BME280;3567;52.444;13.556;2022-12-08T10:29:20;100203.94;;;3.29;100.00
7052;BME280;3567;52.444;13.556;2022-12-08T10:31:45;100205.19;;;3.33;100.00
7052;BME280;3567;52.444;13.556;2022-12-08T10:34:19;100206.47;;;3.37;100.00
7052;BME280;3567;52.444;13.556;2022-12-08T10:36:55;100202.41;;;3.41;100.00
7052;BME280;3567;52.444;13.556;2022-12-08T10:39:57;100192.19;;;3.38;100.00
7052;BME280;3567;52.444;13.556;2022-12-08T10:42:22;100188.88;;;3.29;100.00
7052;BME280;3567;52.444;13.556;2022-12-08T10:44:59;100195.41;;;3.27;100.00
7052;BME280;3567;52.444;13.556;2022-12-08T10:47:27;100192.09;;;3.25;100.00
7052;BME280;3567;52.444;13.556;2022-12-08T10:50:18;100186.81;;;3.25;100.00
7052;BME280;3567;52.444;13.556;2022-12-08T10:52:44;100183.78;;;3.28;100.00
7052;BME280;3567;52.444;13.556;2022-12-08T10:55:18;100188.88;;;3.29;100.00
7052;BME280;3567;52.444;13.556;2022-12-08T10:57:44;100184.00;;;3.26;100.00
7052;BME280;3567;52.444;13.556;2022-12-08T11:00:22;100186.81;;;3.25;100.00
7052;BME280;3567;52.444;13.556;2022-12-08T11:02:54;100195.16;;;3.22;100.00
7052;BME280;3567;52.444;13.556;2022-12-08T11:05:21;100183.13;;;3.19;100.00
7052;BME280;3567;52.444;13.556;2022-12-08T11:07:52;100182.06;;;3.13;100.00
7052;BME280;3567;52.444;13.556;2022-12-08T11:10:32;100175.31;;;3.04;100.00
7052;BME280;3567;52.444;13.556;2022-12-08T11:13:04;100173.84;;;3.02;100.00
7052;BME280;3567;52.444;13.556;2022-12-08T11:15:36;100170.19;;;3.03;100.00
7052;BME280;3567;52.444;13.556;2022-12-08T11:18:28;100171.59;;;2.99;100.00
7052;BME280;3567;52.444;13.556;2022-12-08T11:20:58;100173.19;;;2.93;100.00
7052;BME280;3567;52.444;13.556;2022-12-08T11:23:27;100167.91;;;2.93;100.00
7052;BME280;3567;52.444;13.556;2022-12-08T11:25:55;100162.78;;;2.92;100.00
7052;BME280;3567;52.444;13.556;2022-12-08T11:28:23;100156.31;;;2.94;100.00
7052;BME280;3567;52.444;13.556;2022-12-08T11:30:54;100156.09;;;2.96;100.00
7052;BME280;3567;52.444;13.556;2022-12-08T11:33:26;100154.25;;;2.96;100.00
7052;BME280;3567;52.444;13.556;2022-12-08T11:35:59;100152.44;;;2.97;100.00
7052;BME280;3567;52.444;13.556;2022-12-08T11:38:27;100154.88;;;2.98;100.00
7052;BME280;3567;52.444;13.556;2022-12-08T11:41:08;100152.88;;;3.00;100.00
7052;BME280;3567;52.444;13.556;2022-12-08T11:46:10;100157.75;;;3.03;100.00
7052;BME280;3567;52.444;13.556;2022-12-08T11:48:52;100151.88;;;3.01;100.00
7052;BME280;3567;52.444;13.556;2022-12-08T11:51:39;100151.88;;;3.01;100.00
7052;BME280;3567;52.444;13.556;2022-12-08T11:54:26;100152.69;;;3.02;100.00
7052;BME280;3567;52.444;13.556;2022-12-08T11:56:58;100149.22;;;3.01;100.00
7052;BME280;3567;52.444;13.556;2022-12-08T11:59:35;100151.25;;;2.99;100.00
7052;BME280;3567;52.444;13.556;2022-12-08T12:02:13;100156.91;;;2.96;100.00
7052;BME280;3567;52.444;13.556;2022-12-08T12:04:46;100151.63;;;2.96;100.00
7052;BME280;3567;52.444;13.556;2022-12-08T12:18:21;100165.00;;;2.88;100.00
7052;BME280;3567;52.444;13.556;2022-12-08T12:20:56;100162.53;;;2.86;100.00
7052;BME280;3567;52.444;13.556;2022-12-08T12:25:59;100163.50;;;2.79;100.00
7052;BME280;3567;52.444;13.556;2022-12-08T12:28:28;100165.28;;;2.72;100.00
7052;BME280;3567;52.444;13.556;2022-12-08T12:31:11;100166.84;;;2.66;100.00
7052;BME280;3567;52.444;13.556;2022-12-08T12:33:37;100169.69;;;2.65;100.00
7052;BME280;3567;52.444;13.556;2022-12-08T12:36:07;100170.69;;;2.63;100.00
7052;BME280;3567;52.444;13.556;2022-12-08T12:38:48;100165.41;;;2.63;100.00
7052;BME280;3567;52.444;13.556;2022-12-08T12:41:45;100166.63;;;2.61;100.00
7052;BME280;3567;52.444;13.556;2022-12-08T12:46:57;100159.50;;;2.61;100.00
7052;BME280;3567;52.444;13.556;2022-12-08T13:02:36;100163.75;;;2.56;100.00
7052;BME280;3567;52.444;13.556;2022-12-08T13:07:44;100154.97;;;2.55;100.00
7052;BME280;3567;52.444;13.556;2022-12-08T13:10:39;100158.25;;;2.57;100.00
7052;BME280;3567;52.444;13.556;2022-12-08T13:18:48;100148.50;;;2.58;100.00
7052;BME280;3567;52.444;13.556;2022-12-08T13:21:18;100151.13;;;2.58;100.00
7052;BME280;3567;52.444;13.556;2022-12-08T13:26:44;100150.31;;;2.57;100.00
7052;BME280;3567;52.444;13.556;2022-12-08T13:29:21;100153.78;;;2.58;100.00
7052;BME280;3567;52.444;13.556;2022-12-08T13:31:58;100149.31;;;2.58;100.00
7052;BME280;3567;52.444;13.556;2022-12-08T13:34:48;100156.88;;;2.61;100.00
7052;BME280;3567;52.444;13.556;2022-12-08T13:37:19;100150.16;;;2.66;100.00
7052;BME280;3567;52.444;13.556;2022-12-08T13:42:28;100150.59;;;2.69;100.00
7052;BME280;3567;52.444;13.556;2022-12-08T13:47:37;100148.59;;;2.71;100.00
7052;BME280;3567;52.444;13.556;2022-12-08T13:50:12;100137.63;;;2.74;100.00
7052;BME280;3567;52.444;13.556;2022-12-08T13:52:54;100141.34;;;2.80;100.00
7052;BME280;3567;52.444;13.556;2022-12-08T13:55:28;100148.91;;;2.83;100.00
7052;BME280;3567;52.444;13.556;2022-12-08T13:57:57;100152.78;;;2.87;100.00
7052;BME280;3567;52.444;13.556;2022-12-08T14:00:22;100146.28;;;2.89;100.00
7052;BME280;3567;52.444;13.556;2022-12-08T14:02:50;100150.38;;;2.92;100.00
7052;BME280;3567;52.444;13.556;2022-12-08T14:05:18;100149.19;;;2.95;100.00
7052;BME280;3567;52.444;13.556;2022-12-08T14:07:46;100147.97;;;2.97;100.00
7052;BME280;3567;52.444;13.556;2022-12-08T14:10:24;100147.16;;;2.97;100.00
7052;BME280;3567;52.444;13.556;2022-12-08T14:12:55;100153.44;;;2.96;100.00
7052;BME280;3567;52.444;13.556;2022-12-08T14:15:23;100152.44;;;2.97;100.00
7052;BME280;3567;52.444;13.556;2022-12-08T14:17:53;100153.09;;;2.99;100.00
7052;BME280;3567;52.444;13.556;2022-12-08T14:22:50;100153.25;;;2.97;100.00
7052;BME280;3567;52.444;13.556;2022-12-08T14:25:16;100154.88;;;2.98;100.00
7052;BME280;3567;52.444;13.556;2022-12-08T14:27:42;100154.88;;;2.98;100.00
7052;BME280;3567;52.444;13.556;2022-12-08T14:37:42;100150.44;;;2.99;100.00
7052;BME280;3567;52.444;13.556;2022-12-08T14:42:44;100153.44;;;2.96;100.00
7052;BME280;3567;52.444;13.556;2022-12-08T14:45:12;100155.28;;;2.95;100.00
7052;BME280;3567;52.444;13.556;2022-12-08T14:47:38;100167.50;;;2.96;100.00
7052;BME280;3567;52.444;13.556;2022-12-08T14:50:40;100185.41;;;2.94;100.00
7052;BME280;3567;52.444;13.556;2022-12-08T14:53:13;100199.00;;;2.91;100.00
7052;BME280;3567;52.444;13.556;2022-12-08T14:55:42;100188.75;;;2.60;100.00
7052;BME280;3567;52.444;13.556;2022-12-08T14:58:26;100184.44;;;2.31;100.00
7052;BME280;3567;52.444;13.556;2022-12-08T15:00:55;100185.84;;;2.12;100.00
7052;BME280;3567;52.444;13.556;2022-12-08T15:03:24;100179.78;;;1.97;100.00
7052;BME280;3567;52.444;13.556;2022-12-08T15:05:52;100188.03;;;1.87;100.00